createdAt,value
2022-10-31T00:01:38.488Z,11.4
2022-10-31T00:11:38.478Z,11.3
2022-10-31T00:16:38.510Z,11.3
2022-10-31T00:26:38.498Z,11.3
2022-10-31T00:31:38.477Z,11.3
2022-10-31T00:36:38.489Z,11.2
2022-10-31T00:46:38.546Z,11.2
2022-10-31T00:56:38.516Z,11.2
2022-10-31T01:16:38.629Z,11.3
2022-10-31T01:21:38.539Z,11.3
2022-10-31T01:31:38.533Z,11.2
2022-10-31T01:41:38.537Z,11.3
2022-10-31T01:46:38.547Z,11.3
2022-10-31T01:56:38.532Z,11.2
2022-10-31T02:01:38.793Z,11.2
2022-10-31T02:11:38.549Z,11.2
2022-10-31T02:21:38.582Z,11.2
2022-10-31T02:36:38.553Z,11.2
2022-10-31T02:46:38.596Z,11.1
2022-10-31T02:56:38.523Z,11.1
2022-10-31T03:01:38.753Z,11.2
2022-10-31T03:11:38.573Z,11.1
2022-10-31T03:16:38.566Z,11.2
2022-10-31T03:26:38.562Z,11.1
2022-10-31T03:36:38.577Z,11
2022-10-31T03:56:38.611Z,11
2022-10-31T04:06:38.624Z,11.1
2022-10-31T04:16:38.613Z,11
2022-10-31T04:21:38.576Z,11
2022-10-31T04:31:38.566Z,10.9
2022-10-31T04:36:38.607Z,11
2022-10-31T04:46:38.596Z,11
2022-10-31T04:56:38.631Z,11
2022-10-31T05:11:38.586Z,11.1
2022-10-31T05:21:38.645Z,11
2022-10-31T05:26:38.583Z,10.9
2022-10-31T05:36:38.584Z,10.9
2022-10-31T05:46:38.647Z,10.9
2022-10-31T05:51:38.605Z,10.9
2022-10-31T06:01:38.824Z,10.8
2022-10-31T06:06:38.629Z,10.9
2022-10-31T06:36:38.642Z,10.9
2022-10-31T06:41:38.598Z,10.8
2022-10-31T06:51:38.584Z,10.8
2022-10-31T06:56:38.633Z,10.7
2022-10-31T07:01:38.717Z,10.8
2022-10-31T07:06:38.629Z,10.7
2022-10-31T07:16:38.635Z,10.8
2022-10-31T07:26:38.618Z,10.8
2022-10-31T07:51:41.604Z,10.8
2022-10-31T08:01:38.595Z,10.9
2022-10-31T08:06:38.616Z,10.8
2022-10-31T08:16:38.633Z,10.8
2022-10-31T08:21:38.613Z,10.9
2022-10-31T08:26:38.629Z,10.9
2022-10-31T08:36:38.645Z,10.9
2022-10-31T08:41:38.618Z,11
2022-10-31T08:46:38.658Z,10.9
2022-10-31T09:11:38.652Z,11
2022-10-31T09:16:38.637Z,11
2022-10-31T09:26:38.666Z,11
2022-10-31T09:36:38.664Z,11
2022-10-31T09:41:38.676Z,11
2022-10-31T09:46:38.664Z,11.1
2022-10-31T09:56:38.693Z,11.2
2022-10-31T10:01:38.957Z,11.1
2022-10-31T10:06:38.683Z,11.2
2022-10-31T10:36:38.768Z,11.2
2022-10-31T10:46:38.673Z,11.2
2022-10-31T10:56:38.741Z,11.3
2022-10-31T11:06:38.688Z,11.3
2022-10-31T11:11:38.729Z,11.3
2022-10-31T11:16:41.275Z,11.4
2022-10-31T11:26:38.703Z,11.4
2022-10-31T11:36:38.758Z,11.3
2022-10-31T11:46:38.716Z,11.4
2022-10-31T12:06:38.785Z,11.4
2022-10-31T12:11:38.733Z,11.5
2022-10-31T12:21:38.729Z,11.5
2022-10-31T12:26:38.740Z,11.5
2022-10-31T12:31:38.757Z,11.4
2022-10-31T12:41:38.755Z,11.5
2022-10-31T12:51:38.785Z,11.4
2022-10-31T13:01:38.832Z,11.6
2022-10-31T13:06:44.323Z,11.5
2022-10-31T13:21:38.807Z,11.5
2022-10-31T13:26:38.765Z,11.5
2022-10-31T13:31:38.780Z,11.5
2022-10-31T13:36:38.767Z,11.6
2022-10-31T13:46:38.855Z,11.6
2022-10-31T13:56:38.785Z,11.6
2022-10-31T14:01:38.963Z,11.6
2022-10-31T14:06:38.860Z,11.5
2022-10-31T14:16:38.779Z,11.6
2022-10-31T14:21:38.803Z,11.7
2022-10-31T14:41:38.840Z,11.5
2022-10-31T14:51:38.811Z,11.5
2022-10-31T15:01:39.002Z,11.4
2022-10-31T15:11:38.790Z,11.5
2022-10-31T15:16:38.820Z,11.5
2022-10-31T15:26:38.822Z,11.4
2022-10-31T15:31:38.803Z,11.5
2022-10-31T15:41:38.779Z,11.5
2022-10-31T16:01:39.065Z,11.4
2022-10-31T16:06:38.834Z,11.4
2022-10-31T16:16:38.806Z,11.3
2022-10-31T16:21:38.834Z,11.3
2022-10-31T16:26:38.821Z,11.3
2022-10-31T16:31:38.905Z,11.3
2022-10-31T16:41:38.955Z,11.3
2022-10-31T16:46:38.869Z,11.4
2022-10-31T16:56:38.905Z,11.3
2022-10-31T17:16:38.894Z,11.2
2022-10-31T17:26:38.903Z,11.2
2022-10-31T17:36:38.889Z,11.3
2022-10-31T17:41:38.932Z,11.3
2022-10-31T17:51:38.864Z,11.3
2022-10-31T17:56:38.919Z,11.3
2022-10-31T18:06:38.882Z,11.3
2022-10-31T18:11:38.911Z,11.3
2022-10-31T18:36:38.910Z,11.3
2022-10-31T18:41:39.025Z,11.3
2022-10-31T18:51:38.890Z,11.3
2022-10-31T19:01:39.085Z,11.3
2022-10-31T19:06:38.941Z,11.2
2022-10-31T19:16:38.940Z,11.3
2022-10-31T19:26:38.980Z,11.2
2022-10-31T19:51:38.977Z,11.2
2022-10-31T20:01:39.031Z,11.2
2022-10-31T20:11:38.979Z,11.2
2022-10-31T20:16:38.966Z,11.3
2022-10-31T20:26:38.937Z,11.2
2022-10-31T20:36:38.999Z,11.2
2022-10-31T20:41:38.994Z,11.3
2022-10-31T20:51:38.989Z,11.2
2022-10-31T21:11:39.006Z,11.1
2022-10-31T21:16:38.979Z,11.1
2022-10-31T21:21:39.024Z,11.2
2022-10-31T21:31:39.296Z,11.1
2022-10-31T21:36:39.025Z,11.1
2022-10-31T21:41:39.014Z,11.2
2022-10-31T21:51:39.060Z,11.1
2022-10-31T22:01:39.088Z,11.1
2022-10-31T22:06:39.178Z,11.2
2022-10-31T22:26:39.074Z,11.1
2022-10-31T22:31:39.070Z,11.1
2022-10-31T22:41:39.057Z,11.1
2022-10-31T22:46:39.082Z,11.1
2022-10-31T22:56:39.024Z,11.1
2022-10-31T23:01:39.225Z,11.1
2022-10-31T23:06:39.078Z,11.1
2022-10-31T23:16:39.030Z,11.1
2022-10-31T23:21:39.064Z,11.1
2022-10-31T23:46:39.071Z,11.2
2022-10-31T23:51:39.075Z,11
